createdAt,value
2022-11-10T00:02:38.605Z,51376.66
2022-11-10T00:05:24.478Z,51344.84
2022-11-10T00:08:12.610Z,51370.69
2022-11-10T00:10:59.066Z,51346.84
2022-11-10T00:14:07.406Z,51384.59
2022-11-10T00:17:04.372Z,51344.84
2022-11-10T00:19:50.383Z,51342.84
2022-11-10T00:22:37.751Z,51348.81
2022-11-10T00:25:25.162Z,51362.75
2022-11-10T00:28:10.646Z,51362.75
2022-11-10T00:30:56.402Z,51370.69
2022-11-10T00:33:44.581Z,51354.78
2022-11-10T00:36:30.434Z,51378.66
2022-11-10T00:39:16.012Z,51370.69
2022-11-10T00:42:01.441Z,51360.75
2022-11-10T00:44:46.899Z,51364.72
2022-11-10T00:47:32.529Z,51358.75
2022-11-10T00:50:18.126Z,51350.81
2022-11-10T00:53:03.965Z,51372.69
2022-11-10T00:55:49.647Z,51350.81
2022-11-10T00:58:35.097Z,51344.84
2022-11-10T01:01:24.431Z,51364.72
2022-11-10T01:04:10.155Z,51352.78
2022-11-10T01:06:55.539Z,51360.75
2022-11-10T01:09:41.555Z,51350.81
2022-11-10T01:12:30.876Z,51340.88
2022-11-10T01:15:16.599Z,51366.72
2022-11-10T01:18:02.181Z,51370.69
2022-11-10T01:20:52.544Z,51338.88
2022-11-10T01:23:38.196Z,51402.50
2022-11-10T01:26:24.775Z,51364.72
2022-11-10T01:29:10.261Z,51350.81
2022-11-10T01:31:55.745Z,51352.78
2022-11-10T01:34:41.233Z,51352.78
2022-11-10T01:37:27.269Z,51342.84
2022-11-10T01:40:13.959Z,51362.75
2022-11-10T01:42:59.956Z,51338.88
2022-11-10T01:46:13.306Z,51354.78
2022-11-10T01:49:02.480Z,51360.75
2022-11-10T01:51:57.719Z,51352.78
2022-11-10T01:54:47.158Z,51340.88
2022-11-10T01:57:33.145Z,51360.75
2022-11-10T02:00:20.160Z,51336.91
2022-11-10T02:03:40.179Z,51348.81
2022-11-10T02:06:30.933Z,51344.84
2022-11-10T02:09:18.204Z,51364.72
2022-11-10T02:12:04.326Z,51340.88
2022-11-10T02:14:49.935Z,51352.78
2022-11-10T02:17:35.685Z,51360.75
2022-11-10T02:20:22.366Z,51342.84
2022-11-10T02:23:36.932Z,51342.84
2022-11-10T02:26:26.578Z,51348.81
2022-11-10T02:29:12.544Z,51364.72
2022-11-10T02:31:58.219Z,51352.78
2022-11-10T02:34:43.922Z,51334.91
2022-11-10T02:37:29.380Z,51364.72
2022-11-10T02:40:14.944Z,51394.53
2022-11-10T02:43:00.419Z,51346.84
2022-11-10T02:45:46.241Z,51384.59
2022-11-10T02:48:31.885Z,51346.84
2022-11-10T02:51:17.689Z,51358.75
2022-11-10T02:54:03.374Z,51342.84
2022-11-10T02:56:48.957Z,51350.81
2022-11-10T02:59:34.545Z,51356.78
2022-11-10T03:02:19.940Z,51368.69
2022-11-10T03:05:05.825Z,51340.88
2022-11-10T03:07:57.571Z,51360.75
2022-11-10T03:10:43.003Z,51348.81
2022-11-10T03:13:40.198Z,51346.84
2022-11-10T03:16:34.171Z,51356.78
2022-11-10T03:19:19.608Z,51336.91
2022-11-10T03:22:05.313Z,51348.81
2022-11-10T03:24:50.995Z,51356.78
2022-11-10T03:27:36.477Z,51356.78
2022-11-10T03:30:22.061Z,51344.84
2022-11-10T03:33:07.629Z,51354.78
2022-11-10T03:35:53.213Z,51360.75
2022-11-10T03:38:38.842Z,51352.78
2022-11-10T03:41:24.287Z,51330.94
2022-11-10T03:44:09.865Z,51336.91
2022-11-10T03:46:55.557Z,51352.78
2022-11-10T03:49:40.929Z,51321.00
2022-11-10T03:52:26.295Z,51338.88
2022-11-10T03:55:16.312Z,51356.78
2022-11-10T03:58:03.413Z,51360.75
2022-11-10T04:00:48.873Z,51330.94
2022-11-10T04:03:34.458Z,51356.78
2022-11-10T04:06:39.018Z,51366.72
2022-11-10T04:09:25.003Z,51354.78
2022-11-10T04:12:28.580Z,51334.91
2022-11-10T04:15:32.898Z,51370.69
2022-11-10T04:18:21.777Z,51354.78
2022-11-10T04:21:07.341Z,51352.78
2022-11-10T04:23:52.833Z,51372.69
2022-11-10T04:26:38.996Z,51340.88
2022-11-10T04:29:24.925Z,51366.72
2022-11-10T04:32:10.187Z,51334.91
2022-11-10T04:34:55.768Z,51336.91
2022-11-10T04:37:41.237Z,51326.94
2022-11-10T04:40:26.611Z,51326.94
2022-11-10T04:43:12.138Z,51350.81
2022-11-10T04:45:57.950Z,51350.81
2022-11-10T04:48:43.604Z,51348.81
2022-11-10T04:51:39.304Z,51338.88
2022-11-10T04:54:25.080Z,51340.88
2022-11-10T04:57:10.510Z,51334.91
2022-11-10T04:59:55.949Z,51338.88
2022-11-10T05:02:41.376Z,51330.94
2022-11-10T05:05:27.322Z,51362.75
2022-11-10T05:08:13.386Z,51330.94
2022-11-10T05:10:59.108Z,51352.78
2022-11-10T05:13:45.957Z,51321.00
2022-11-10T05:16:31.428Z,51338.88
2022-11-10T05:19:17.216Z,51352.78
2022-11-10T05:22:02.735Z,51356.78
2022-11-10T05:24:48.138Z,51342.84
2022-11-10T05:27:33.704Z,51390.56
2022-11-10T05:30:19.312Z,51356.78
2022-11-10T05:33:05.678Z,51321.00
2022-11-10T05:35:51.981Z,51366.72
2022-11-10T05:38:42.940Z,51352.78
2022-11-10T05:41:29.358Z,51348.81
2022-11-10T05:44:15.280Z,51350.81
2022-11-10T05:47:00.949Z,51370.69
2022-11-10T05:49:46.447Z,51340.88
2022-11-10T05:52:31.940Z,51334.91
2022-11-10T05:55:20.686Z,51344.84
2022-11-10T05:58:06.603Z,51356.78
2022-11-10T06:00:52.214Z,51352.78
2022-11-10T06:03:38.143Z,51372.69
2022-11-10T06:06:24.114Z,51350.81
2022-11-10T06:09:10.237Z,51360.75
2022-11-10T06:11:55.620Z,51344.84
2022-11-10T06:14:41.095Z,51332.91
2022-11-10T06:17:26.696Z,51352.78
2022-11-10T06:20:14.401Z,51374.66
2022-11-10T06:23:06.670Z,51348.81
2022-11-10T06:25:52.249Z,51332.91
2022-11-10T06:28:37.641Z,51358.75
2022-11-10T06:31:23.403Z,51348.81
2022-11-10T06:34:09.329Z,51346.84
2022-11-10T06:36:55.114Z,51356.78
2022-11-10T06:39:40.586Z,51360.75
2022-11-10T06:42:26.126Z,51350.81
2022-11-10T06:45:11.499Z,51350.81
2022-11-10T06:48:06.906Z,51380.63
2022-11-10T06:50:52.758Z,51364.72
2022-11-10T06:53:38.233Z,51368.69
2022-11-10T06:56:23.557Z,51328.94
2022-11-10T06:59:08.976Z,51350.81
2022-11-10T07:01:54.257Z,51354.78
2022-11-10T07:04:39.671Z,51340.88
2022-11-10T07:07:25.043Z,51364.72
2022-11-10T07:10:10.979Z,51340.88
2022-11-10T07:13:02.316Z,51348.81
2022-11-10T07:15:48.620Z,51346.84
2022-11-10T07:18:36.003Z,51356.78
2022-11-10T07:21:21.692Z,51342.84
2022-11-10T07:24:07.779Z,51350.81
2022-11-10T07:26:53.065Z,51342.84
2022-11-10T07:29:39.846Z,51350.81
2022-11-10T07:32:25.566Z,51394.53
2022-11-10T07:35:11.029Z,51362.75
2022-11-10T07:37:58.145Z,51350.81
2022-11-10T07:40:43.470Z,51354.78
2022-11-10T07:43:28.988Z,51348.81
2022-11-10T07:46:15.671Z,51372.69
2022-11-10T07:49:01.606Z,51354.78
2022-11-10T07:51:47.113Z,51362.75
2022-11-10T07:54:32.561Z,51344.84
2022-11-10T07:57:18.452Z,51370.69
2022-11-10T08:00:04.602Z,51342.84
2022-11-10T08:02:51.053Z,51364.72
2022-11-10T08:05:37.057Z,51346.84
2022-11-10T08:08:22.615Z,51384.59
2022-11-10T08:11:08.001Z,51356.78
2022-11-10T08:13:53.483Z,51378.66
2022-11-10T08:16:39.377Z,51384.59
2022-11-10T08:19:25.256Z,51378.66
2022-11-10T08:22:10.948Z,51366.72
2022-11-10T08:24:56.693Z,51354.78
2022-11-10T08:27:42.330Z,51372.69
2022-11-10T08:30:28.740Z,51372.69
2022-11-10T08:33:17.396Z,51338.88
2022-11-10T08:36:03.180Z,51370.69
2022-11-10T08:38:48.675Z,51372.69
2022-11-10T08:41:34.060Z,51364.72
2022-11-10T08:44:21.019Z,51360.75
2022-11-10T08:47:06.905Z,51358.75
2022-11-10T08:49:52.347Z,51358.75
2022-11-10T08:52:37.673Z,51370.69
2022-11-10T08:55:23.894Z,51376.66
2022-11-10T08:58:14.477Z,51376.66
2022-11-10T09:00:59.901Z,51372.69
2022-11-10T09:03:45.363Z,51362.75
2022-11-10T09:06:31.084Z,51376.66
2022-11-10T09:09:16.892Z,51366.72
2022-11-10T09:12:02.513Z,51396.53
2022-11-10T09:14:48.079Z,51370.69
2022-11-10T09:17:33.370Z,51404.50
2022-11-10T09:23:13.505Z,51374.66
2022-11-10T09:25:59.010Z,51368.69
2022-11-10T09:28:44.462Z,51378.66
2022-11-10T09:31:30.012Z,51378.66
2022-11-10T09:34:15.350Z,51376.66
2022-11-10T09:37:00.833Z,51362.75
2022-11-10T09:39:46.205Z,51354.78
2022-11-10T09:42:39.549Z,51378.66
2022-11-10T09:45:37.813Z,51380.63
2022-11-10T09:48:29.960Z,51362.75
2022-11-10T09:51:36.288Z,51360.75
2022-11-10T09:54:39.545Z,51348.81
2022-11-10T09:57:26.883Z,51360.75
2022-11-10T10:00:18.208Z,51364.72
2022-11-10T10:03:06.240Z,51394.53
2022-11-10T10:06:10.325Z,51382.63
2022-11-10T10:09:27.442Z,51348.81
2022-11-10T10:12:35.423Z,51364.72
2022-11-10T10:15:46.859Z,51358.75
2022-11-10T10:18:32.141Z,51380.63
2022-11-10T10:21:33.372Z,51366.72
2022-11-10T10:24:22.421Z,51376.66
2022-11-10T10:27:18.678Z,51360.75
2022-11-10T10:30:15.021Z,51386.59
2022-11-10T10:33:20.067Z,51364.72
2022-11-10T10:36:15.492Z,51386.59
2022-11-10T10:39:11.122Z,51390.56
2022-11-10T10:41:57.264Z,51386.59
2022-11-10T10:45:16.599Z,51374.66
2022-11-10T10:48:02.306Z,51400.50
2022-11-10T10:50:49.157Z,51360.75
2022-11-10T10:53:47.607Z,51376.66
2022-11-10T10:56:33.819Z,51372.69
2022-11-10T10:59:22.746Z,51396.53
2022-11-10T11:02:40.833Z,51408.47
2022-11-10T11:05:26.639Z,51380.63
2022-11-10T11:08:19.267Z,51426.34
2022-11-10T11:11:11.299Z,51446.25
2022-11-10T11:14:24.560Z,51462.16
2022-11-10T11:17:21.209Z,51404.50
2022-11-10T11:20:14.340Z,51484.00
2022-11-10T11:23:27.145Z,51462.16
2022-11-10T11:26:24.034Z,51448.22
2022-11-10T11:29:32.846Z,51521.78
2022-11-10T11:32:45.913Z,51565.53
2022-11-10T11:35:46.567Z,51517.81
2022-11-10T11:38:44.265Z,51539.69
2022-11-10T11:42:40.713Z,51601.31
2022-11-10T11:46:12.564Z,51476.06
2022-11-10T11:49:18.623Z,51442.25
2022-11-10T11:52:27.449Z,51432.31
2022-11-10T11:55:42.636Z,51454.19
2022-11-10T11:58:51.231Z,51517.81
2022-11-10T12:02:02.855Z,51488.00
2022-11-10T12:05:13.284Z,51501.91
2022-11-10T12:08:36.609Z,51519.81
2022-11-10T12:11:43.115Z,51454.19
2022-11-10T12:14:52.388Z,51523.78
2022-11-10T12:18:07.351Z,51583.41
2022-11-10T12:21:29.012Z,51533.72
2022-11-10T12:24:52.522Z,51513.84
2022-11-10T12:27:49.727Z,51511.84
2022-11-10T12:30:37.454Z,51489.97
2022-11-10T12:34:03.848Z,51458.16
2022-11-10T12:36:50.828Z,51488.00
2022-11-10T12:39:56.063Z,51486.00
2022-11-10T12:42:44.256Z,51529.75
2022-11-10T12:45:36.758Z,51545.66
2022-11-10T12:48:24.534Z,51559.56
2022-11-10T12:51:39.433Z,51543.66
2022-11-10T12:54:28.962Z,51583.41
2022-11-10T12:57:30.600Z,51527.75
2022-11-10T13:00:28.833Z,51501.91
2022-11-10T13:03:34.642Z,51583.41
2022-11-10T13:06:29.108Z,51579.44
2022-11-10T13:09:36.264Z,51643.06
2022-11-10T13:12:24.502Z,51662.94
2022-11-10T13:15:39.134Z,51658.97
2022-11-10T13:18:44.975Z,51573.47
2022-11-10T13:21:52.898Z,51509.84
2022-11-10T13:24:42.567Z,51511.84
2022-11-10T13:27:52.731Z,51472.09
2022-11-10T13:30:45.552Z,51470.09
2022-11-10T13:33:36.794Z,51466.13
2022-11-10T13:36:48.845Z,51468.09
2022-11-10T13:39:34.911Z,51527.75
2022-11-10T13:42:25.061Z,51499.91
2022-11-10T13:45:35.110Z,51527.75
2022-11-10T13:48:57.481Z,51533.72
2022-11-10T13:52:06.501Z,51549.63
2022-11-10T13:55:20.389Z,51585.41
2022-11-10T13:58:13.066Z,51553.59
2022-11-10T14:01:26.141Z,51543.66
2022-11-10T14:04:45.218Z,51567.50
2022-11-10T14:07:39.797Z,51553.59
2022-11-10T14:10:52.056Z,51547.63
2022-11-10T14:14:00.811Z,51466.13
2022-11-10T14:16:46.671Z,51424.38
2022-11-10T14:19:40.306Z,51450.22
2022-11-10T14:22:42.487Z,51442.25
2022-11-10T14:25:40.024Z,51414.44
2022-11-10T14:28:34.923Z,51434.31
2022-11-10T14:31:25.306Z,51416.41
2022-11-10T14:34:16.706Z,51448.22
2022-11-10T14:37:03.886Z,51412.44
2022-11-10T14:39:53.358Z,51410.44
2022-11-10T14:42:39.757Z,51412.44
2022-11-10T14:45:28.375Z,51406.47
2022-11-10T14:48:22.008Z,51418.41
2022-11-10T14:51:19.447Z,51414.44
2022-11-10T14:54:07.284Z,51386.59
2022-11-10T14:56:54.593Z,51408.47
2022-11-10T14:59:40.691Z,51396.53
2022-11-10T15:02:27.409Z,51380.63
2022-11-10T15:05:15.732Z,51408.47
2022-11-10T15:08:03.341Z,51378.66
2022-11-10T15:10:53.179Z,51402.50
2022-11-10T15:13:39.899Z,51386.59
2022-11-10T15:16:32.726Z,51376.66
2022-11-10T15:19:32.677Z,51392.56
2022-11-10T15:22:21.696Z,51386.59
2022-11-10T15:25:16.096Z,51380.63
2022-11-10T15:28:26.891Z,51388.59
2022-11-10T15:31:23.438Z,51394.53
2022-11-10T15:34:41.702Z,51374.66
2022-11-10T15:37:31.010Z,51362.75
2022-11-10T15:40:36.646Z,51376.66
2022-11-10T15:43:23.645Z,51384.59
2022-11-10T15:46:18.604Z,51360.75
2022-11-10T15:49:10.773Z,51366.72
2022-11-10T15:52:06.964Z,51386.59
2022-11-10T15:54:52.730Z,51382.63
2022-11-10T15:57:38.449Z,51372.69
2022-11-10T16:00:24.169Z,51376.66
2022-11-10T16:03:15.570Z,51386.59
2022-11-10T16:06:01.518Z,51376.66
2022-11-10T16:08:47.344Z,51366.72
2022-11-10T16:11:35.687Z,51348.81
2022-11-10T16:14:21.210Z,51352.78
2022-11-10T16:17:09.906Z,51364.72
2022-11-10T16:19:57.033Z,51376.66
2022-11-10T16:22:42.900Z,51378.66
2022-11-10T16:25:28.799Z,51354.78
2022-11-10T16:28:22.462Z,51380.63
2022-11-10T16:31:11.652Z,51394.53
2022-11-10T16:33:57.515Z,51374.66
2022-11-10T16:36:46.093Z,51380.63
2022-11-10T16:39:32.130Z,51352.78
2022-11-10T16:42:18.107Z,51364.72
2022-11-10T16:45:05.438Z,51370.69
2022-11-10T16:47:53.394Z,51378.66
2022-11-10T16:50:39.313Z,51380.63
2022-11-10T16:53:28.373Z,51362.75
2022-11-10T16:56:20.612Z,51356.78
2022-11-10T16:59:06.602Z,51332.91
2022-11-10T17:01:54.288Z,51356.78
2022-11-10T17:04:40.288Z,51380.63
2022-11-10T17:07:28.502Z,51352.78
2022-11-10T17:10:20.058Z,51374.66
2022-11-10T17:13:05.729Z,51374.66
2022-11-10T17:15:56.042Z,51364.72
2022-11-10T17:18:41.722Z,51348.81
2022-11-10T17:21:32.638Z,51376.66
2022-11-10T17:24:19.179Z,51342.84
2022-11-10T17:27:05.264Z,51362.75
2022-11-10T17:29:51.435Z,51352.78
2022-11-10T17:33:03.019Z,51374.66
2022-11-10T17:35:48.630Z,51336.91
2022-11-10T17:38:34.310Z,51352.78
2022-11-10T17:41:20.321Z,51360.75
2022-11-10T17:44:15.241Z,51356.78
2022-11-10T17:47:01.161Z,51348.81
2022-11-10T17:49:46.607Z,51366.72
2022-11-10T17:52:32.196Z,51368.69
2022-11-10T17:55:28.514Z,51356.78
2022-11-10T17:58:18.200Z,51360.75
2022-11-10T18:01:18.898Z,51346.84
2022-11-10T18:04:04.605Z,51332.91
2022-11-10T18:06:50.254Z,51322.97
2022-11-10T18:09:36.117Z,51342.84
2022-11-10T18:12:26.768Z,51348.81
2022-11-10T18:15:15.869Z,51348.81
2022-11-10T18:18:01.680Z,51346.84
2022-11-10T18:20:47.258Z,51338.88
2022-11-10T18:23:33.428Z,51334.91
2022-11-10T18:26:19.081Z,51374.66
2022-11-10T18:29:04.667Z,51324.97
2022-11-10T18:31:50.143Z,51342.84
2022-11-10T18:34:35.447Z,51364.72
2022-11-10T18:37:21.158Z,51352.78
2022-11-10T18:40:08.005Z,51362.75
2022-11-10T18:42:59.894Z,51332.91
2022-11-10T18:45:53.822Z,51321.00
2022-11-10T18:48:40.702Z,51322.97
2022-11-10T18:51:26.604Z,51340.88
2022-11-10T18:54:12.890Z,51344.84
2022-11-10T18:56:58.568Z,51340.88
2022-11-10T18:59:44.111Z,51324.97
2022-11-10T19:02:29.570Z,51370.69
2022-11-10T19:05:15.097Z,51348.81
2022-11-10T19:08:00.625Z,51330.94
2022-11-10T19:10:46.542Z,51346.84
2022-11-10T19:13:32.147Z,51350.81
2022-11-10T19:16:19.163Z,51338.88
2022-11-10T19:19:05.075Z,51352.78
2022-11-10T19:21:50.472Z,51346.84
2022-11-10T19:24:53.744Z,51342.84
2022-11-10T19:27:41.820Z,51328.94
2022-11-10T19:30:27.363Z,51356.78
2022-11-10T19:33:12.940Z,51324.97
2022-11-10T19:36:19.077Z,51328.94
2022-11-10T19:39:04.514Z,51319.00
2022-11-10T19:41:50.863Z,51336.91
2022-11-10T19:44:36.484Z,51338.88
2022-11-10T19:47:22.127Z,51342.84
2022-11-10T19:50:08.200Z,51348.81
2022-11-10T19:52:54.050Z,51396.53
2022-11-10T19:55:39.671Z,51321.00
2022-11-10T19:58:28.656Z,51328.94
2022-11-10T20:01:16.206Z,51364.72
2022-11-10T20:04:02.956Z,51334.91
2022-11-10T20:06:48.642Z,51346.84
2022-11-10T20:09:34.421Z,51330.94
2022-11-10T20:12:19.835Z,51344.84
2022-11-10T20:15:09.045Z,51340.88
2022-11-10T20:17:54.784Z,51338.88
2022-11-10T20:20:41.115Z,51352.78
2022-11-10T20:23:26.655Z,51328.94
2022-11-10T20:26:17.527Z,51348.81
2022-11-10T20:29:02.978Z,51340.88
2022-11-10T20:31:48.854Z,51322.97
2022-11-10T20:34:34.368Z,51334.91
2022-11-10T20:37:20.014Z,51326.94
2022-11-10T20:40:30.089Z,51321.00
2022-11-10T20:43:14.944Z,51334.91
2022-11-10T20:46:00.899Z,51317.00
2022-11-10T20:48:47.496Z,51340.88
2022-11-10T20:51:33.137Z,51342.84
2022-11-10T20:54:18.804Z,51321.00
2022-11-10T20:57:04.445Z,51338.88
2022-11-10T20:59:49.862Z,51346.84
2022-11-10T21:02:35.439Z,51336.91
2022-11-10T21:05:21.064Z,51340.88
2022-11-10T21:08:06.557Z,51322.97
2022-11-10T21:10:58.102Z,51332.91
2022-11-10T21:13:43.396Z,51348.81
2022-11-10T21:16:28.943Z,51342.84
2022-11-10T21:19:14.593Z,51321.00
2022-11-10T21:22:00.632Z,51346.84
2022-11-10T21:24:46.313Z,51324.97
2022-11-10T21:27:31.863Z,51344.84
2022-11-10T21:30:22.969Z,51342.84
2022-11-10T21:33:09.436Z,51330.94
2022-11-10T21:35:55.398Z,51358.75
2022-11-10T21:38:42.356Z,51321.00
2022-11-10T21:41:28.053Z,51334.91
2022-11-10T21:44:13.798Z,51330.94
2022-11-10T21:46:59.281Z,51322.97
2022-11-10T21:49:51.068Z,51336.91
2022-11-10T21:52:37.164Z,51338.88
2022-11-10T21:55:22.867Z,51340.88
2022-11-10T21:58:08.606Z,51315.03
2022-11-10T22:01:10.546Z,51328.94
2022-11-10T22:03:56.528Z,51344.84
2022-11-10T22:07:00.403Z,51336.91
2022-11-10T22:10:04.843Z,51319.00
2022-11-10T22:13:09.469Z,51313.03
2022-11-10T22:16:14.220Z,51336.91
2022-11-10T22:18:59.782Z,51332.91
2022-11-10T22:21:45.419Z,51330.94
2022-11-10T22:24:30.957Z,51321.00
2022-11-10T22:27:17.005Z,51348.81
2022-11-10T22:30:02.412Z,51332.91
2022-11-10T22:32:48.067Z,51319.00
2022-11-10T22:35:43.211Z,51322.97
2022-11-10T22:38:36.739Z,51293.16
2022-11-10T22:41:41.638Z,51358.75
2022-11-10T22:44:27.711Z,51330.94
2022-11-10T22:47:13.200Z,51332.91
2022-11-10T22:49:59.413Z,51384.59
2022-11-10T22:52:45.189Z,51324.97
2022-11-10T22:55:31.179Z,51346.84
2022-11-10T22:58:16.763Z,51321.00
2022-11-10T23:01:08.776Z,51311.06
2022-11-10T23:03:58.300Z,51332.91
2022-11-10T23:06:44.334Z,51311.06
2022-11-10T23:09:30.254Z,51321.00
2022-11-10T23:12:16.988Z,51352.78
2022-11-10T23:15:02.444Z,51319.00
2022-11-10T23:17:48.447Z,51311.06
2022-11-10T23:20:33.994Z,51301.09
2022-11-10T23:23:19.505Z,51328.94
2022-11-10T23:26:14.785Z,51324.97
2022-11-10T23:29:00.596Z,51315.03
2022-11-10T23:31:46.092Z,51322.97
2022-11-10T23:34:31.782Z,51322.97
2022-11-10T23:37:17.834Z,51338.88
2022-11-10T23:40:03.631Z,51301.09
2022-11-10T23:42:49.441Z,51315.03
2022-11-10T23:46:05.482Z,51317.00
2022-11-10T23:48:43.606Z,51313.03
2022-11-10T23:51:29.128Z,51344.84
2022-11-10T23:54:14.670Z,51321.00
2022-11-10T23:57:00.322Z,51334.91
2022-11-10T23:59:45.945Z,51324.97
